Time;durP1;ratioP1;P1;durP2;ratioP2;P2;SDS_P1;SDS_P2;PMS_P1;PMS_P2;Temp;Humidity;BMP_temperature;BMP_pressure;BME280_temperature;BME280_humidity;BME280_pressure;Samples;Min_cycle;Max_cycle;Signal;HPM_P1;HPM_P2
2022/04/01 00:02:11;;;;;;;14.13;10.20;;;;;;;;;;4405687;32;19951;-78
2022/04/01 00:04:37;;;;;;;15.60;10.93;;;;;;;;;;4420838;32;20026;-79
2022/04/01 00:07:02;;;;;;;;;;;;;;;;;;4420121;32;20026;-79
2022/04/01 00:09:27;;;;;;;19.05;10.48;;;;;;;;;;4419732;32;19986;-79
2022/04/01 00:11:52;;;;;;;;;;;;;;;;;;4419752;32;20180;-79
2022/04/01 00:14:17;;;;;;;13.98;11.10;;;;;;;;;;4419615;32;19941;-79
2022/04/01 00:16:42;;;;;;;;;;;;;;;;;;4397048;32;20076;-79
2022/04/01 00:19:08;;;;;;;16.52;11.35;;;;;;;;;;4390175;32;19945;-78
2022/04/01 00:21:33;;;;;;;;;;;;;;;;;;4392320;32;20048;-78
2022/04/01 00:23:58;;;;;;;14.65;10.02;;;;;;;;;;4404243;32;19987;-78
2022/04/01 00:26:23;;;;;;;17.27;12.00;;;;;;;;;;4405419;32;20139;-79
2022/04/01 00:28:48;;;;;;;;;;;;;;;;;;4406781;32;20408;-79
2022/04/01 00:31:14;;;;;;;12.68;9.55;;;;;;;;;;4411251;32;19913;-79
2022/04/01 00:33:39;;;;;;;13.93;10.57;;;;;;;;;;4418586;32;20037;-76
2022/04/01 00:36:05;;;;;;;;;;;;;;;;;;4425008;32;20018;-78
2022/04/01 00:38:30;;;;;;;15.20;10.50;;;;;;;;;;4437614;26;19948;-74
2022/04/01 00:40:57;;;;;;;;;;;;;;;;;;4409023;32;20048;-74
2022/04/01 00:43:26;;;;;;;13.48;9.98;;;;;;;;;;4421774;32;19985;-74
2022/04/01 00:45:51;;;;;;;18.98;9.57;;;;;;;;;;4423248;32;20030;-75
2022/04/01 00:48:17;;;;;;;;;;;;;;;;;;4423883;32;20038;-75
2022/04/01 00:50:42;;;;;;;13.10;10.00;;;;;;;;;;4437225;32;19951;-75
2022/04/01 00:53:07;;;;;;;;;;;;;;;;;;4437588;32;20047;-74
2022/04/01 00:55:33;;;;;;;12.98;9.25;;;;;;;;;;4423405;32;19948;-74
2022/04/01 00:57:59;;;;;;;13.27;9.77;;;;;;;;;;4437257;32;20113;-74
2022/04/01 01:00:25;;;;;;;;;;;;;;;;;;4424180;32;20042;-74
2022/04/01 01:02:50;;;;;;;13.17;10.27;;;;;;;;;;4423298;32;20263;-75
2022/04/01 01:05:16;;;;;;;;;;;;;;;;;;4422291;32;20042;-75
2022/04/01 01:07:44;;;;;;;15.68;10.10;;;;;;;;;;4429509;32;19945;-74
2022/04/01 01:10:10;;;;;;;14.18;10.82;;;;;;;;;;4423628;32;20120;-74
2022/04/01 01:12:36;;;;;;;14.23;9.60;;;;;;;;;;4422521;32;20087;-74
2022/04/01 01:15:01;;;;;;;;;;;;;;;;;;4421520;32;20415;-74
2022/04/01 01:17:26;;;;;;;14.25;9.40;;;;;;;;;;4408921;32;19937;-74
2022/04/01 01:19:52;;;;;;;18.10;9.85;;;;;;;;;;4421823;32;20317;-74
2022/04/01 01:22:17;;;;;;;;;;;;;;;;;;4423358;32;20056;-74
2022/04/01 01:24:43;;;;;;;14.55;9.75;;;;;;;;;;4422689;32;19951;-73
2022/04/01 01:27:08;;;;;;;;;;;;;;;;;;4409240;32;20077;-74
2022/04/01 01:29:38;;;;;;;18.02;11.18;;;;;;;;;;4408538;32;20316;-75
2022/04/01 01:32:04;;;;;;;13.93;10.20;;;;;;;;;;4421504;32;20048;-75
2022/04/01 01:34:32;;;;;;;17.55;10.88;;;;;;;;;;4422583;32;20030;-75
2022/04/01 01:36:57;;;;;;;22.05;11.70;;;;;;;;;;4420876;32;20030;-75
2022/04/01 01:39:22;;;;;;;;;;;;;;;;;;4427488;32;20093;-74
2022/04/01 01:41:49;;;;;;;16.30;11.35;;;;;;;;;;4436578;32;19941;-76
2022/04/01 01:44:14;;;;;;;16.52;11.85;;;;;;;;;;4422497;32;20048;-74
2022/04/01 01:46:40;;;;;;;;;;;;;;;;;;4436086;32;20081;-75
2022/04/01 01:49:06;;;;;;;14.90;10.75;;;;;;;;;;4436265;32;19999;-75
2022/04/01 01:56:59;;;;;;;18.58;10.85;;;;;;;;;;4436327;32;20036;-75
2022/04/01 01:59:24;;;;;;;;;;;;;;;;;;4437764;32;20045;-74
2022/04/01 02:01:50;;;;;;;15.40;10.60;;;;;;;;;;4435766;32;19986;-74
2022/04/01 02:04:15;;;;;;;20.15;13.50;;;;;;;;;;4424874;32;20034;-74
2022/04/01 02:06:40;;;;;;;;;;;;;;;;;;4427519;32;20100;-74
2022/04/01 02:09:05;;;;;;;18.78;11.80;;;;;;;;;;4422379;32;19941;-74
2022/04/01 02:11:30;;;;;;;;;;;;;;;;;;4422266;32;20093;-74
2022/04/01 02:13:55;;;;;;;15.58;11.42;;;;;;;;;;4435997;32;19937;-73
2022/04/01 02:16:24;;;;;;;;;;;;;;;;;;4435817;32;20022;-72
2022/04/01 02:18:49;;;;;;;18.52;12.05;;;;;;;;;;4436079;32;19936;-73
2022/04/01 02:21:15;;;;;;;;;;;;;;;;;;4436164;32;20085;-73
2022/04/01 02:23:41;;;;;;;17.95;11.77;;;;;;;;;;4421450;32;20377;-75
2022/04/01 02:26:09;;;;;;;20.05;13.27;;;;;;;;;;4422075;32;20017;-74
2022/04/01 02:28:35;;;;;;;17.08;12.15;;;;;;;;;;4436795;32;20022;-75
2022/04/01 02:31:01;;;;;;;;;;;;;;;;;;4421864;32;20049;-74
2022/04/01 02:33:27;;;;;;;17.52;12.50;;;;;;;;;;4437392;32;19960;-74
2022/04/01 02:35:54;;;;;;;16.05;11.65;;;;;;;;;;4437096;32;20117;-74
2022/04/01 02:38:19;;;;;;;16.50;11.90;;;;;;;;;;4435667;32;20068;-74
2022/04/01 02:40:44;;;;;;;;;;;;;;;;;;4421646;32;20025;-74
2022/04/01 02:43:09;;;;;;;16.27;11.40;;;;;;;;;;4437004;32;20003;-73
2022/04/01 02:45:34;;;;;;;;;;;;;;;;;;4437831;32;20146;-74
2022/04/01 02:47:59;;;;;;;15.15;10.82;;;;;;;;;;4436036;32;19933;-75
2022/04/01 02:50:26;;;;;;;16.52;11.18;;;;;;;;;;4436457;32;20392;-75
2022/04/01 02:52:51;;;;;;;16.30;11.40;;;;;;;;;;4435024;32;20033;-75
2022/04/01 02:55:17;;;;;;;;;;;;;;;;;;4437769;32;20037;-74
2022/04/01 02:57:42;;;;;;;14.38;10.88;;;;;;;;;;4421571;32;20303;-74
2022/04/01 03:00:09;;;;;;;16.02;11.65;;;;;;;;;;4437401;32;20026;-74
2022/04/01 03:02:35;;;;;;;19.55;13.23;;;;;;;;;;4421117;32;20461;-75
2022/04/01 03:05:03;;;;;;;16.23;11.48;;;;;;;;;;4421240;32;20121;-75
2022/04/01 03:07:28;;;;;;;17.70;10.10;;;;;;;;;;4422292;32;20022;-74
2022/04/01 03:09:53;;;;;;;;;;;;;;;;;;4435928;32;20408;-75
2022/04/01 03:12:18;;;;;;;14.90;10.75;;;;;;;;;;4435043;32;19945;-75
2022/04/01 03:14:43;;;;;;;;;;;;;;;;;;4422048;32;20217;-75
2022/04/01 03:17:08;;;;;;;17.90;11.38;;;;;;;;;;4438785;32;19947;-75
2022/04/01 03:19:35;;;;;;;20.50;12.88;;;;;;;;;;4438708;32;20052;-75
2022/04/01 03:22:00;;;;;;;15.13;10.68;;;;;;;;;;4424400;32;20064;-75
2022/04/01 03:24:26;;;;;;;;;;;;;;;;;;4439686;32;20399;-74
2022/04/01 03:26:51;;;;;;;15.02;11.45;;;;;;;;;;4438664;32;19945;-75
2022/04/01 03:29:16;;;;;;;;;;;;;;;;;;4438376;32;20048;-75
2022/04/01 03:31:42;;;;;;;19.65;10.70;;;;;;;;;;4438580;32;19990;-75
2022/04/01 03:34:07;;;;;;;14.18;9.73;;;;;;;;;;4423664;32;20051;-75
2022/04/01 03:36:32;;;;;;;;;;;;;;;;;;4425211;32;20093;-74
2022/04/01 03:38:57;;;;;;;17.70;11.75;;;;;;;;;;4438188;32;19978;-73
2022/04/01 03:41:23;;;;;;;;;;;;;;;;;;4439063;32;20169;-74
2022/04/01 03:43:51;;;;;;;13.52;9.15;;;;;;;;;;4439355;32;20307;-74
2022/04/01 03:46:18;;;;;;;15.05;9.93;;;;;;;;;;4437795;32;20025;-74
2022/04/01 03:49:03;;;;;;;14.02;9.98;;;;;;;;;;4424557;32;20048;-74
2022/04/01 03:51:29;;;;;;;17.73;11.35;;;;;;;;;;4439823;32;20350;-74
2022/04/01 03:53:55;;;;;;;;;;;;;;;;;;4438136;32;20026;-75
2022/04/01 03:56:22;;;;;;;16.83;11.18;;;;;;;;;;4439471;32;19966;-75
2022/04/01 03:58:47;;;;;;;12.98;9.73;;;;;;;;;;4437967;32;20021;-75
2022/04/01 04:01:13;;;;;;;;;;;;;;;;;;4438242;32;20453;-75
2022/04/01 04:03:38;;;;;;;15.05;10.50;;;;;;;;;;4423755;32;19956;-75
2022/04/01 04:06:04;;;;;;;;;;;;;;;;;;4425895;32;20530;-75
2022/04/01 04:08:29;;;;;;;16.37;12.68;;;;;;;;;;4425041;32;19979;-75
2022/04/01 04:10:56;;;;;;;15.28;10.52;;;;;;;;;;4439109;32;20066;-75
2022/04/01 04:13:25;;;;;;;12.90;8.45;;;;;;;;;;4423477;32;20036;-74
2022/04/01 04:15:57;;;;;;;14.05;9.50;;;;;;;;;;4437335;32;20093;-74
2022/04/01 04:18:24;;;;;;;19.25;10.30;;;;;;;;;;4424038;32;20081;-74
2022/04/01 04:21:13;;;;;;;12.15;8.80;;;;;;;;;;4438862;32;20029;-75
2022/04/01 04:23:46;;;;;;;14.82;9.48;;;;;;;;;;4440067;32;20022;-74
2022/04/01 04:26:13;;;;;;;12.07;9.68;;;;;;;;;;4438020;32;20034;-74
2022/04/01 04:28:40;;;;;;;14.20;9.57;;;;;;;;;;4424726;32;20106;-74
2022/04/01 04:31:07;;;;;;;14.30;9.32;;;;;;;;;;4438509;32;20018;-74
2022/04/01 04:33:33;;;;;;;13.82;8.90;;;;;;;;;;4437530;32;20046;-74
2022/04/01 04:35:58;;;;;;;;;;;;;;;;;;4438170;32;20064;-74
2022/04/01 04:38:26;;;;;;;12.00;8.38;;;;;;;;;;4421336;32;19937;-75
2022/04/01 04:40:52;;;;;;;14.00;9.45;;;;;;;;;;4423827;32;20054;-74
2022/04/01 04:43:21;;;;;;;;;;;;;;;;;;4422782;32;20026;-74
2022/04/01 04:45:49;;;;;;;12.93;8.65;;;;;;;;;;4423529;32;19937;-75
2022/04/01 04:48:15;;;;;;;16.25;8.45;;;;;;;;;;4421982;32;20022;-75
2022/04/01 04:50:44;;;;;;;14.02;9.50;;;;;;;;;;4421697;32;20463;-75
2022/04/01 04:53:12;;;;;;;13.85;9.45;;;;;;;;;;4421916;32;20064;-75
2022/04/01 04:55:37;;;;;;;14.13;8.75;;;;;;;;;;4420709;32;20470;-75
2022/04/01 04:58:02;;;;;;;;;;;;;;;;;;4423690;32;20052;-74
2022/04/01 05:00:27;;;;;;;12.15;9.02;;;;;;;;;;4421796;32;19971;-74
2022/04/01 05:02:53;;;;;;;;;;;;;;;;;;4423419;32;20021;-74
2022/04/01 05:05:27;;;;;;;12.18;7.72;;;;;;;;;;4420542;32;20249;-74
2022/04/01 05:08:00;;;;;;;15.05;8.50;;;;;;;;;;4421678;32;20023;-75
2022/04/01 05:10:29;;;;;;;13.07;7.87;;;;;;;;;;4422118;32;20052;-74
2022/04/01 05:12:54;;;;;;;15.60;8.63;;;;;;;;;;4421367;32;20367;-76
2022/04/01 05:15:19;;;;;;;;;;;;;;;;;;4422057;32;20026;-75
2022/04/01 05:17:44;;;;;;;10.22;7.62;;;;;;;;;;4422578;32;20307;-75
2022/04/01 05:20:16;;;;;;;17.62;8.45;;;;;;;;;;4421457;32;20044;-75
2022/04/01 05:22:41;;;;;;;13.18;7.53;;;;;;;;;;4422498;32;20025;-76
2022/04/01 05:25:08;;;;;;;13.23;7.25;;;;;;;;;;4420547;32;20041;-75
2022/04/01 05:27:40;;;;;;;13.30;7.87;;;;;;;;;;4422585;32;20105;-74
2022/04/01 05:30:13;;;;;;;11.50;7.25;;;;;;;;;;4422157;32;20018;-74
2022/04/01 05:32:39;;;;;;;10.18;6.68;;;;;;;;;;4420878;32;20052;-74
2022/04/01 05:35:04;;;;;;;13.90;6.85;;;;;;;;;;4421276;32;20030;-73
2022/04/01 05:37:29;;;;;;;;;;;;;;;;;;4421560;32;20124;-73
2022/04/01 05:39:55;;;;;;;9.40;6.14;;;;;;;;;;4437387;32;20374;-74
2022/04/01 05:42:20;;;;;;;;;;;;;;;;;;4436548;32;20056;-74
2022/04/01 05:44:46;;;;;;;8.57;5.68;;;;;;;;;;4422057;32;19940;-74
2022/04/01 05:47:12;;;;;;;10.95;6.47;;;;;;;;;;4435932;32;20082;-74
2022/04/01 05:49:38;;;;;;;;;;;;;;;;;;4437122;32;20343;-75
2022/04/01 05:52:03;;;;;;;9.38;4.78;;;;;;;;;;4436252;32;19963;-75
2022/04/01 05:54:29;;;;;;;;;;;;;;;;;;4437199;32;20034;-74
2022/04/01 05:56:54;;;;;;;14.13;6.05;;;;;;;;;;4435312;32;19932;-74
2022/04/01 05:59:20;;;;;;;11.70;4.88;;;;;;;;;;4436121;32;20065;-75
2022/04/01 06:01:55;;;;;;;10.38;4.75;;;;;;;;;;4436304;32;20081;-75
2022/04/01 06:04:34;;;;;;;7.97;4.45;;;;;;;;;;4436818;32;20044;-73
2022/04/01 06:07:10;;;;;;;12.98;4.97;;;;;;;;;;4435579;32;20069;-74
2022/04/01 06:09:39;;;;;;;6.30;4.47;;;;;;;;;;4421674;32;20038;-75
2022/04/01 06:12:25;;;;;;;11.52;4.75;;;;;;;;;;4418471;32;20079;-75
2022/04/01 06:15:10;;;;;;;12.48;4.68;;;;;;;;;;4413281;32;20069;-74
2022/04/01 06:17:41;;;;;;;9.88;4.75;;;;;;;;;;4420560;32;20086;-73
2022/04/01 06:20:07;;;;;;;11.60;5.05;;;;;;;;;;4415838;32;20091;-73
2022/04/01 06:22:33;;;;;;;;;;;;;;;;;;4432898;32;20445;-73
2022/04/01 06:24:58;;;;;;;8.05;4.87;;;;;;;;;;4414005;32;19991;-77
2022/04/01 06:27:42;;;;;;;10.30;5.50;;;;;;;;;;4432969;32;20030;-76
2022/04/01 06:30:08;;;;;;;12.32;4.78;;;;;;;;;;4423311;32;20442;-78
2022/04/01 06:32:40;;;;;;;7.03;4.35;;;;;;;;;;4437311;32;20021;-77
2022/04/01 06:35:18;;;;;;;7.80;4.85;;;;;;;;;;4432934;32;20093;-77
2022/04/01 06:37:47;;;;;;;6.93;4.25;;;;;;;;;;4429661;32;20091;-78
2022/04/01 06:40:14;;;;;;;8.80;4.32;;;;;;;;;;4419589;32;20033;-77
2022/04/01 06:42:39;;;;;;;10.23;3.78;;;;;;;;;;4433027;32;20034;-78
2022/04/01 06:45:05;;;;;;;;;;;;;;;;;;4422214;32;20044;-78
2022/04/01 06:47:30;;;;;;;7.12;3.45;;;;;;;;;;4420864;32;19956;-78
2022/04/01 06:49:55;;;;;;;;;;;;;;;;;;4434556;32;20407;-78
2022/04/01 06:52:20;;;;;;;7.55;4.45;;;;;;;;;;4434658;32;19983;-78
2022/04/01 06:54:46;;;;;;;;;;;;;;;;;;4420883;32;20056;-76
2022/04/01 06:57:12;;;;;;;7.97;3.42;;;;;;;;;;4434038;32;19978;-76
2022/04/01 06:59:37;;;;;;;;;;;;;;;;;;4434763;32;20108;-77
2022/04/01 07:02:02;;;;;;;5.95;3.65;;;;;;;;;;4434593;32;19941;-78
2022/04/01 07:04:28;;;;;;;;;;;;;;;;;;4421508;32;20143;-77
2022/04/01 07:06:55;;;;;;;9.63;4.45;;;;;;;;;;4419545;32;19949;-76
2022/04/01 07:09:20;;;;;;;3.83;2.95;;;;;;;;;;4434553;32;20515;-76
2022/04/01 07:11:46;;;;;;;;;;;;;;;;;;4435562;32;20046;-77
2022/04/01 07:14:11;;;;;;;7.53;3.05;;;;;;;;;;4434624;32;19937;-76
2022/04/01 07:16:36;;;;;;;;;;;;;;;;;;4435541;32;20026;-77
2022/04/01 07:19:01;;;;;;;7.72;3.92;;;;;;;;;;4434459;32;19947;-76
2022/04/01 07:21:26;;;;;;;;;;;;;;;;;;4421289;32;20326;-77
2022/04/01 07:23:52;;;;;;;5.57;3.17;;;;;;;;;;4435331;32;19932;-77
2022/04/01 07:26:17;;;;;;;;;;;;;;;;;;4435228;32;20029;-76
2022/04/01 07:28:42;;;;;;;4.90;2.62;;;;;;;;;;4422229;32;20360;-77
2022/04/01 07:33:51;;;;;;;4.35;2.35;;;;;;;;;;4432304;32;19996;-77
2022/04/01 07:36:16;;;;;;;;;;;;;;;;;;4429120;32;20018;-76
2022/04/01 07:38:42;;;;;;;5.12;2.60;;;;;;;;;;4420582;32;19945;-77
2022/04/01 07:41:07;;;;;;;;;;;;;;;;;;4435780;32;20488;-76
2022/04/01 07:43:32;;;;;;;4.45;2.03;;;;;;;;;;4437014;32;19943;-77
2022/04/01 07:45:58;;;;;;;;;;;;;;;;;;4437625;32;20381;-77
2022/04/01 07:48:23;;;;;;;7.28;2.55;;;;;;;;;;4437045;32;20286;-77
2022/04/01 07:50:48;;;;;;;;;;;;;;;;;;4421327;32;20030;-76
2022/04/01 07:53:13;;;;;;;6.65;2.20;;;;;;;;;;4419439;32;19945;-77
2022/04/01 07:55:39;;;;;;;;;;;;;;;;;;4435550;32;20457;-76
2022/04/01 07:58:04;;;;;;;6.35;2.20;;;;;;;;;;4433864;32;19953;-76
2022/04/01 08:00:30;;;;;;;;;;;;;;;;;;4436313;32;20098;-75
2022/04/01 08:02:56;;;;;;;;;;;;;;;;;;4437720;32;19941;-76
2022/04/01 08:05:21;;;;;;;;;;;;;;;;;;4438068;32;20318;-76
2022/04/01 08:07:47;;;;;;;;;;;;;;;;;;4424278;32;20280;-75
2022/04/01 08:10:12;;;;;;;;;;;;;;;;;;4437656;32;20296;-76
2022/04/01 08:12:37;;;;;;;;;;;;;;;;;;4432694;32;19937;-76
2022/04/01 08:15:02;;;;;;;;;;;;;;;;;;4438497;32;19946;-77
2022/04/01 08:17:27;;;;;;;;;;;;;;;;;;4424250;32;19970;-76
2022/04/01 08:19:52;;;;;;;;;;;;;;;;;;4423581;32;20291;-76
2022/04/01 08:22:18;;;;;;;;;;;;;;;;;;4438079;32;19937;-77
2022/04/01 08:24:43;;;;;;;;;;;;;;;;;;4425070;32;19939;-77
2022/04/01 08:27:08;;;;;;;;;;;;;;;;;;4438927;32;19996;-77
2022/04/01 08:29:34;;;;;;;;;;;;;;;;;;4424492;32;20314;-76
2022/04/01 08:31:59;;;;;;;;;;;;;;;;;;4438748;32;19932;-76
2022/04/01 08:34:25;;;;;;;;;;;;;;;;;;4438795;32;19994;-75
2022/04/01 08:36:50;;;;;;;;;;;;;;;;;;4437228;32;19943;-75
2022/04/01 08:39:15;;;;;;;;;;;;;;;;;;4423027;32;20270;-74
2022/04/01 08:41:40;;;;;;;;;;;;;;;;;;4438273;32;19967;-75
2022/04/01 08:44:05;;;;;;;;;;;;;;;;;;4423041;32;19949;-75
2022/04/01 08:46:30;;;;;;;;;;;;;;;;;;4437152;32;19972;-76
2022/04/01 08:48:55;;;;;;;;;;;;;;;;;;4439385;32;19973;-75
2022/04/01 08:51:21;;;;;;;;;;;;;;;;;;4424233;32;19992;-76
2022/04/01 08:53:46;;;;;;;;;;;;;;;;;;4422563;32;20338;-75
2022/04/01 08:56:12;;;;;;;;;;;;;;;;;;4436825;32;19981;-75
2022/04/01 08:58:37;;;;;;;;;;;;;;;;;;4433029;32;19964;-75
2022/04/01 09:01:02;;;;;;;;;;;;;;;;;;4437326;32;19948;-75
2022/04/01 09:03:28;;;;;;;;;;;;;;;;;;4437180;32;20003;-75
2022/04/01 09:05:53;;;;;;;;;;;;;;;;;;4436591;32;19936;-78
2022/04/01 09:08:19;;;;;;;;;;;;;;;;;;4436844;32;20323;-76
2022/04/01 09:10:44;;;;;;;;;;;;;;;;;;4436917;32;19956;-76
2022/04/01 09:13:10;;;;;;;;;;;;;;;;;;4436965;32;19947;-75
2022/04/01 09:15:35;;;;;;;;;;;;;;;;;;4432293;32;19945;-76
2022/04/01 09:18:00;;;;;;;;;;;;;;;;;;4421617;32;20000;-76
2022/04/01 09:20:26;;;;;;;;;;;;;;;;;;4426051;32;19932;-76
2022/04/01 09:22:51;;;;;;;;;;;;;;;;;;4434218;32;19933;-76
2022/04/01 09:25:16;;;;;;;;;;;;;;;;;;4425259;32;19956;-74
2022/04/01 09:27:41;;;;;;;;;;;;;;;;;;4436741;32;19945;-76
2022/04/01 09:30:06;;;;;;;;;;;;;;;;;;4431316;32;20127;-75
2022/04/01 09:32:31;;;;;;;;;;;;;;;;;;4434164;32;19937;-76
2022/04/01 09:34:56;;;;;;;;;;;;;;;;;;4427618;32;20017;-76
2022/04/01 09:37:21;;;;;;;;;;;;;;;;;;4436831;32;19937;-76
2022/04/01 09:39:46;;;;;;;;;;;;;;;;;;4428319;32;19944;-75
2022/04/01 09:42:12;;;;;;;;;;;;;;;;;;4425565;32;19988;-75
2022/04/01 09:44:37;;;;;;;;;;;;;;;;;;4435528;32;19945;-75
2022/04/01 09:47:02;;;;;;;;;;;;;;;;;;4436141;32;19937;-75
2022/04/01 09:49:27;;;;;;;;;;;;;;;;;;4423652;32;19988;-76
2022/04/01 09:51:52;;;;;;;;;;;;;;;;;;4436174;32;20319;-76
2022/04/01 09:54:17;;;;;;;;;;;;;;;;;;4436388;32;19944;-76
2022/04/01 09:56:43;;;;;;;;;;;;;;;;;;4435834;32;19984;-76
2022/04/01 09:59:08;;;;;;;;;;;;;;;;;;4424894;32;19967;-76
2022/04/01 10:01:33;;;;;;;;;;;;;;;;;;4421435;32;19932;-76
2022/04/01 10:03:58;;;;;;;;;;;;;;;;;;4407384;32;19948;-76
2022/04/01 10:06:23;;;;;;;;;;;;;;;;;;4421854;32;19933;-77
2022/04/01 10:08:48;;;;;;;;;;;;;;;;;;4420131;32;19941;-76
2022/04/01 10:11:13;;;;;;;;;;;;;;;;;;4434813;32;20270;-76
2022/04/01 10:13:38;;;;;;;;;;;;;;;;;;4428363;32;19937;-76
2022/04/01 10:16:05;;;;;;;;;;;;;;;;;;4431696;32;19933;-75
2022/04/01 10:18:30;;;;;;;;;;;;;;;;;;4421078;32;19983;-76
2022/04/01 10:20:55;;;;;;;;;;;;;;;;;;4434478;32;19933;-74
2022/04/01 10:23:21;;;;;;;;;;;;;;;;;;4435671;32;20324;-76
2022/04/01 10:25:46;;;;;;;;;;;;;;;;;;4421342;32;19968;-76
2022/04/01 10:28:11;;;;;;;;;;;;;;;;;;4435263;32;20279;-75
2022/04/01 10:30:37;;;;;;;;;;;;;;;;;;4428978;32;19956;-76
2022/04/01 10:33:02;;;;;;;;;;;;;;;;;;4413641;32;19949;-76
2022/04/01 10:35:27;;;;;;;;;;;;;;;;;;4413002;32;19957;-76
2022/04/01 10:37:52;;;;;;;;;;;;;;;;;;4413045;32;19945;-77
2022/04/01 10:40:18;;;;;;;;;;;;;;;;;;4426353;32;20014;-76
2022/04/01 10:42:43;;;;;;;;;;;;;;;;;;4428963;32;20267;-75
2022/04/01 10:45:08;;;;;;;;;;;;;;;;;;4428637;32;19951;-76
2022/04/01 10:51:36;;;;;;;;;;;;;;;;;;4427014;32;20263;-75
2022/04/01 10:53:03;;;;;;;;;;;;;;;;;;4427464;32;20395;-76
2022/04/01 10:55:28;;;;;;;;;;;;;;;;;;4412547;32;20329;-74
2022/04/01 10:57:53;;;;;;;;;;;;;;;;;;4429095;32;19937;-76
2022/04/01 11:00:18;;;;;;;;;;;;;;;;;;4426321;32;19988;-75
2022/04/01 11:02:43;;;;;;;;;;;;;;;;;;4428708;32;19952;-76
2022/04/01 11:05:08;;;;;;;;;;;;;;;;;;4425306;32;20303;-76
2022/04/01 11:07:36;;;;;;;;;;;;;;;;;;4425543;32;19937;-76
2022/04/01 11:10:01;;;;;;;;;;;;;;;;;;4426813;32;19976;-76
2022/04/01 11:12:27;;;;;;;;;;;;;;;;;;4413995;32;20853;-77
2022/04/01 11:14:52;;;;;;;;;;;;;;;;;;4427142;32;20024;-75
2022/04/01 11:17:17;;;;;;;;;;;;;;;;;;4427927;32;19955;-76
2022/04/01 11:19:42;;;;;;;;;;;;;;;;;;4425443;32;19980;-76
2022/04/01 11:22:07;;;;;;;;;;;;;;;;;;4429229;32;20001;-76
2022/04/01 11:24:33;;;;;;;;;;;;;;;;;;4425709;32;20516;-77
2022/04/01 11:26:59;;;;;;;;;;;;;;;;;;4415327;32;19940;-76
2022/04/01 11:29:24;;;;;;;;;;;;;;;;;;4415188;32;19990;-77
2022/04/01 11:31:49;;;;;;;;;;;;;;;;;;4414222;32;20265;-76
2022/04/01 11:34:14;;;;;;;;;;;;;;;;;;4427799;32;19940;-75
2022/04/01 11:36:39;;;;;;;;;;;;;;;;;;4430253;32;20406;-77
2022/04/01 11:39:04;;;;;;;;;;;;;;;;;;4430775;32;19947;-77
2022/04/01 11:41:30;;;;;;;;;;;;;;;;;;4415756;32;20048;-76
2022/04/01 11:43:55;;;;;;;;;;;;;;;;;;4416592;32;20261;-77
2022/04/01 11:46:20;;;;;;;;;;;;;;;;;;4429575;32;19936;-75
2022/04/01 11:48:46;;;;;;;;;;;;;;;;;;4430512;32;19936;-76
2022/04/01 11:51:13;;;;;;;;;;;;;;;;;;4431915;32;19974;-76
2022/04/01 11:53:39;;;;;;;;;;;;;;;;;;4429181;32;19953;-76
2022/04/01 11:56:05;;;;;;;;;;;;;;;;;;4429353;32;19941;-77
2022/04/01 11:58:30;;;;;;;;;;;;;;;;;;4430414;32;20282;-77
2022/04/01 12:00:55;;;;;;;;;;;;;;;;;;4430014;32;19937;-77
2022/04/01 12:03:20;;;;;;;;;;;;;;;;;;4415478;32;19941;-75
2022/04/01 12:05:45;;;;;;;;;;;;;;;;;;4429825;32;20338;-76
2022/04/01 12:10:54;;;;;;;;;;;;;;;;;;4428532;32;19948;-77
2022/04/01 12:13:20;;;;;;;;;;;;;;;;;;4429987;32;19976;-77
2022/04/01 12:15:45;;;;;;;;;;;;;;;;;;4414367;32;19965;-78
2022/04/01 12:18:10;;;;;;;;;;;;;;;;;;4420569;32;19980;-77
2022/04/01 12:20:35;;;;;;;;;;;;;;;;;;4428678;32;19940;-77
2022/04/01 12:23:01;;;;;;;;;;;;;;;;;;4429016;32;19991;-77
2022/04/01 12:25:26;;;;;;;;;;;;;;;;;;4429543;32;19941;-77
2022/04/01 12:27:51;;;;;;;;;;;;;;;;;;4429564;32;20312;-77
2022/04/01 12:30:16;;;;;;;;;;;;;;;;;;4431819;32;19945;-78
2022/04/01 12:32:41;;;;;;;;;;;;;;;;;;4429257;32;20415;-76
2022/04/01 12:35:06;;;;;;;;;;;;;;;;;;4428656;32;19937;-76
2022/04/01 12:37:32;;;;;;;;;;;;;;;;;;4427407;32;19941;-77
2022/04/01 12:39:57;;;;;;;;;;;;;;;;;;4427588;32;19941;-75
2022/04/01 12:42:22;;;;;;;;;;;;;;;;;;4430574;32;19941;-75
2022/04/01 12:44:47;;;;;;;;;;;;;;;;;;4430146;32;19940;-76
2022/04/01 12:47:13;;;;;;;;;;;;;;;;;;4415003;32;20026;-76
2022/04/01 12:49:38;;;;;;;;;;;;;;;;;;4429152;32;20029;-76
2022/04/01 12:52:03;;;;;;;;;;;;;;;;;;4430061;32;19975;-77
2022/04/01 12:54:28;;;;;;;;;;;;;;;;;;4428586;32;20222;-76
2022/04/01 12:56:54;;;;;;;;;;;;;;;;;;4429326;32;20021;-76
2022/04/01 12:59:19;;;;;;;;;;;;;;;;;;4427562;32;19968;-74
2022/04/01 13:01:44;;;;;;;;;;;;;;;;;;4427712;32;19973;-75
2022/04/01 13:04:09;;;;;;;;;;;;;;;;;;4427481;32;19977;-74
2022/04/01 13:06:34;;;;;;;;;;;;;;;;;;4428615;32;19953;-77
2022/04/01 13:08:59;;;;;;;;;;;;;;;;;;4430695;32;19936;-76
2022/04/01 13:11:24;;;;;;;;;;;;;;;;;;4427985;32;19982;-75
2022/04/01 13:13:49;;;;;;;;;;;;;;;;;;4429452;32;20330;-75
2022/04/01 13:16:14;;;;;;;;;;;;;;;;;;4428450;32;19987;-74
2022/04/01 13:18:40;;;;;;;;;;;;;;;;;;4427284;32;20007;-76
2022/04/01 13:21:05;;;;;;;;;;;;;;;;;;4427641;32;20318;-76
2022/04/01 13:23:31;;;;;;;;;;;;;;;;;;4433226;32;19991;-75
2022/04/01 13:25:56;;;;;;;;;;;;;;;;;;4420339;32;19993;-75
2022/04/01 13:28:21;;;;;;;;;;;;;;;;;;4434691;32;20032;-76
2022/04/01 13:30:46;;;;;;;;;;;;;;;;;;4435147;32;20028;-74
2022/04/01 13:33:11;;;;;;;;;;;;;;;;;;4435309;32;20354;-75
2022/04/01 13:35:36;;;;;;;;;;;;;;;;;;4437744;32;19951;-73
2022/04/01 13:38:02;;;;;;;;;;;;;;;;;;4438816;32;19953;-75
2022/04/01 13:40:27;;;;;;;;;;;;;;;;;;4429725;32;19999;-74
2022/04/01 13:42:52;;;;;;;;;;;;;;;;;;4440719;32;19974;-75
2022/04/01 13:45:17;;;;;;;;;;;;;;;;;;4436859;32;19947;-74
2022/04/01 13:47:42;;;;;;;;;;;;;;;;;;4437422;32;19985;-74
2022/04/01 13:50:08;;;;;;;;;;;;;;;;;;4423425;32;19944;-74
2022/04/01 13:52:33;;;;;;;;;;;;;;;;;;4422036;32;20292;-75
2022/04/01 13:54:58;;;;;;;;;;;;;;;;;;4421976;32;19970;-74
2022/04/01 13:57:23;;;;;;;;;;;;;;;;;;4436349;32;19951;-75
2022/04/01 13:59:48;;;;;;;;;;;;;;;;;;4437406;32;19949;-74
2022/04/01 14:02:13;;;;;;;;;;;;;;;;;;4434382;32;19964;-74
2022/04/01 14:04:39;;;;;;;;;;;;;;;;;;4436953;32;20224;-74
2022/04/01 14:07:07;;;;;;;;;;;;;;;;;;4435688;32;19932;-74
2022/04/01 14:09:33;;;;;;;;;;;;;;;;;;4436666;32;20283;-74
2022/04/01 14:11:58;;;;;;;;;;;;;;;;;;4436462;32;19944;-74
2022/04/01 14:14:23;;;;;;;;;;;;;;;;;;4436777;32;20027;-74
2022/04/01 14:16:48;;;;;;;;;;;;;;;;;;4437322;32;19937;-75
2022/04/01 14:19:14;;;;;;;;;;;;;;;;;;4437551;32;20277;-73
2022/04/01 14:21:39;;;;;;;;;;;;;;;;;;4438089;32;19933;-75
2022/04/01 14:24:04;;;;;;;;;;;;;;;;;;4437148;32;19978;-75
2022/04/01 14:26:29;;;;;;;;;;;;;;;;;;4436913;32;19976;-75
2022/04/01 14:28:54;;;;;;;;;;;;;;;;;;4436143;32;19971;-75
2022/04/01 14:31:20;;;;;;;;;;;;;;;;;;4435915;32;19941;-75
2022/04/01 14:33:45;;;;;;;;;;;;;;;;;;4435318;32;19933;-74
2022/04/01 14:36:11;;;;;;;;;;;;;;;;;;4435472;32;20302;-73
2022/04/01 14:38:36;;;;;;;;;;;;;;;;;;4436420;32;19941;-74
2022/04/01 14:41:01;;;;;;;;;;;;;;;;;;4437628;32;20376;-73
2022/04/01 14:43:26;;;;;;;;;;;;;;;;;;4437794;32;19932;-74
2022/04/01 14:45:51;;;;;;;;;;;;;;;;;;4421930;32;19941;-74
2022/04/01 14:48:16;;;;;;;;;;;;;;;;;;4436842;32;19937;-75
2022/04/01 14:50:41;;;;;;;;;;;;;;;;;;4435525;32;20011;-75
2022/04/01 14:53:06;;;;;;;;;;;;;;;;;;4422726;32;19984;-73
2022/04/01 14:55:31;;;;;;;;;;;;;;;;;;4436078;32;19937;-74
2022/04/01 14:57:57;;;;;;;;;;;;;;;;;;4437105;32;19933;-74
2022/04/01 15:00:22;;;;;;;;;;;;;;;;;;4435488;32;19970;-74
2022/04/01 15:02:47;;;;;;;;;;;;;;;;;;4423420;32;19959;-74
2022/04/01 15:05:15;;;;;;;;;;;;;;;;;;4436482;32;19941;-74
2022/04/01 15:07:40;;;;;;;;;;;;;;;;;;4420706;32;19955;-74
2022/04/01 15:10:06;;;;;;;;;;;;;;;;;;4435364;32;19933;-74
2022/04/01 15:12:31;;;;;;;;;;;;;;;;;;4438451;32;19968;-74
2022/04/01 15:14:56;;;;;;;;;;;;;;;;;;4438138;32;19937;-74
2022/04/01 15:17:21;;;;;;;;;;;;;;;;;;4439702;32;19986;-75
2022/04/01 15:19:46;;;;;;;;;;;;;;;;;;4438147;32;19960;-75
2022/04/01 15:22:11;;;;;;;;;;;;;;;;;;4436907;32;20009;-75
2022/04/01 15:24:36;;;;;;;;;;;;;;;;;;4420254;32;19980;-75
2022/04/01 15:27:02;;;;;;;;;;;;;;;;;;4423999;32;19945;-75
2022/04/01 15:29:29;;;;;;;;;;;;;;;;;;4411710;32;19928;-75
2022/04/01 15:31:54;;;;;;;;;;;;;;;;;;4423426;32;19948;-74
2022/04/01 15:34:19;;;;;;;;;;;;;;;;;;4422689;32;19975;-74
2022/04/01 15:36:45;;;;;;;;;;;;;;;;;;4439105;32;19996;-75
2022/04/01 15:39:11;;;;;;;;;;;;;;;;;;4437183;32;19976;-76
2022/04/01 15:41:36;;;;;;;;;;;;;;;;;;4437968;32;20235;-76
2022/04/01 15:44:01;;;;;;;;;;;;;;;;;;4437660;32;20392;-76
2022/04/01 15:46:26;;;;;;;;;;;;;;;;;;4439044;32;19964;-75
2022/04/01 15:48:52;;;;;;;;;;;;;;;;;;4438013;32;19937;-75
2022/04/01 15:51:17;;;;;;;;;;;;;;;;;;4432713;32;19968;-76
2022/04/01 15:53:42;;;;;;;;;;;;;;;;;;4433248;32;20282;-76
2022/04/01 15:56:07;;;;;;;;;;;;;;;;;;4421633;32;19977;-75
2022/04/01 15:58:32;;;;;;;;;;;;;;;;;;4408805;32;19941;-75